Time;durP1;ratioP1;P1;durP2;ratioP2;P2;SDS_P1;SDS_P2;PMS_P1;PMS_P2;Temp;Humidity;BMP_temperature;BMP_pressure;BME280_temperature;BME280_humidity;BME280_pressure;Samples;Min_cycle;Max_cycle;Signal;HPM_P1;HPM_P2
2022/10/15 00:01:57;;;;;;;45.13;19.08;;;11.90;99.90;;;;;;5028082;28;20036;-75
2022/10/15 00:04:23;;;;;;;36.90;17.90;;;11.90;99.90;;;;;;5027844;28;20029;-74
2022/10/15 00:06:50;;;;;;;29.08;17.40;;;11.80;99.90;;;;;;5045815;28;20077;-75
2022/10/15 00:09:16;;;;;;;76.10;17.88;;;11.90;99.90;;;;;;5030134;28;20511;-75
2022/10/15 00:11:42;;;;;;;79.28;15.70;;;11.80;99.90;;;;;;5030445;28;20400;-76
2022/10/15 00:14:09;;;;;;;50.83;15.35;;;11.80;99.90;;;;;;5025318;28;20064;-74
2022/10/15 00:16:35;;;;;;;67.93;15.30;;;11.80;99.90;;;;;;5027819;28;20048;-74
2022/10/15 00:19:01;;;;;;;116.88;20.02;;;11.80;99.90;;;;;;5026132;28;20043;-75
2022/10/15 00:21:27;;;;;;;39.83;17.33;;;11.90;99.90;;;;;;5028387;28;20021;-75
2022/10/15 00:23:54;;;;;;;29.98;16.05;;;11.80;99.90;;;;;;5024561;28;20037;-75
2022/10/15 00:26:26;;;;;;;120.88;17.40;;;11.90;99.90;;;;;;5032076;28;20431;-74
2022/10/15 00:28:55;;;;;;;32.75;13.43;;;11.90;99.90;;;;;;5028768;28;20025;-74
2022/10/15 00:31:25;;;;;;;54.15;12.88;;;11.80;99.90;;;;;;5031314;28;20041;-75
2022/10/15 00:33:53;;;;;;;44.03;13.57;;;11.80;99.90;;;;;;5010778;28;20039;-74
2022/10/15 00:36:22;;;;;;;50.70;13.90;;;11.80;99.90;;;;;;5010869;28;20038;-74
2022/10/15 00:38:49;;;;;;;13.88;11.40;;;11.80;99.90;;;;;;5029219;28;20417;-75
2022/10/15 00:41:22;;;;;;;51.17;12.82;;;11.70;99.90;;;;;;5029939;28;20396;-75
2022/10/15 00:43:52;;;;;;;26.30;11.77;;;11.70;99.90;;;;;;5042103;28;20506;-75
2022/10/15 00:46:34;;;;;;;30.08;11.25;;;11.60;99.90;;;;;;5013503;28;20045;-75
2022/10/15 00:49:12;;;;;;;22.77;11.03;;;11.50;99.90;;;;;;5021555;28;20033;-76
2022/10/15 00:51:46;;;;;;;30.80;11.85;;;11.40;99.90;;;;;;5025186;28;20519;-74
2022/10/15 00:54:14;;;;;;;25.08;11.60;;;11.40;99.90;;;;;;5004132;28;20481;-75
2022/10/15 00:56:43;;;;;;;13.75;11.40;;;11.30;99.90;;;;;;5027248;28;20067;-75
2022/10/15 00:59:13;;;;;;;20.98;10.70;;;11.20;99.90;;;;;;5025315;28;20093;-75
2022/10/15 01:01:39;;;;;;;20.70;10.55;;;11.20;99.90;;;;;;5027748;28;20029;-74
2022/10/15 01:04:06;;;;;;;20.10;13.65;;;11.10;99.90;;;;;;5021437;28;20044;-75
2022/10/15 01:06:33;;;;;;;24.67;13.45;;;11.10;99.90;;;;;;5029968;28;20037;-75
2022/10/15 01:09:01;;;;;;;25.48;11.38;;;11.00;99.90;;;;;;5031213;28;20054;-74
2022/10/15 01:11:45;;;;;;;37.80;12.90;;;11.00;99.90;;;;;;5025665;28;20041;-75
2022/10/15 01:14:38;;;;;;;22.98;11.77;;;11.00;99.90;;;;;;5021806;28;20056;-74
2022/10/15 01:17:15;;;;;;;35.72;11.18;;;11.00;99.90;;;;;;5029362;28;20036;-74
2022/10/15 01:19:53;;;;;;;32.97;11.27;;;11.00;99.90;;;;;;5027507;28;20519;-75
2022/10/15 01:22:41;;;;;;;25.02;11.30;;;11.00;99.90;;;;;;5017666;28;20037;-75
2022/10/15 01:25:40;;;;;;;24.60;10.48;;;11.00;99.90;;;;;;5027171;28;20036;-75
2022/10/15 01:28:24;;;;;;;39.50;10.93;;;11.00;99.90;;;;;;5031446;28;20037;-74
2022/10/15 01:31:01;;;;;;;30.33;11.38;;;11.00;99.90;;;;;;5031548;28;20345;-75
2022/10/15 01:33:44;;;;;;;18.38;10.80;;;11.00;99.90;;;;;;5032691;28;20092;-75
2022/10/15 01:36:44;;;;;;;45.70;13.98;;;11.10;99.90;;;;;;5000720;28;20041;-75
2022/10/15 01:39:43;;;;;;;12.27;10.48;;;11.10;99.90;;;;;;5024821;28;20376;-75
2022/10/15 01:42:16;;;;;;;16.42;11.45;;;11.20;99.90;;;;;;5024506;28;20041;-75
2022/10/15 01:45:12;;;;;;;12.77;10.32;;;11.20;99.90;;;;;;5030349;28;20043;-76
2022/10/15 01:48:03;;;;;;;12.13;10.57;;;11.20;99.90;;;;;;5025401;28;20041;-75
2022/10/15 01:50:33;;;;;;;13.73;11.35;;;11.20;99.90;;;;;;5021176;28;20037;-75
2022/10/15 01:53:01;;;;;;;12.98;10.40;;;11.20;99.90;;;;;;5011150;28;20069;-76
2022/10/15 01:55:29;;;;;;;14.77;11.10;;;11.20;99.90;;;;;;5011762;28;20056;-76
2022/10/15 01:57:59;;;;;;;14.38;11.43;;;11.30;99.90;;;;;;5016228;28;20029;-76
2022/10/15 02:00:26;;;;;;;14.48;11.85;;;11.30;99.90;;;;;;5030100;28;20612;-76
2022/10/15 02:02:52;;;;;;;13.80;11.13;;;11.30;99.90;;;;;;5032579;28;20044;-75
2022/10/15 02:05:27;;;;;;;14.90;11.98;;;11.40;99.90;;;;;;5028217;28;20555;-75
2022/10/15 02:08:18;;;;;;;14.35;11.60;;;11.40;99.90;;;;;;5027663;28;20026;-76
2022/10/15 02:11:03;;;;;;;14.25;11.70;;;11.40;99.90;;;;;;5012337;28;20033;-74
2022/10/15 02:13:42;;;;;;;15.55;11.88;;;11.40;99.90;;;;;;5032864;28;20049;-75
2022/10/15 02:16:17;;;;;;;15.10;12.38;;;11.40;99.90;;;;;;5034080;28;20060;-75
2022/10/15 02:19:01;;;;;;;13.77;10.93;;;11.50;99.90;;;;;;5027095;28;20029;-75
2022/10/15 02:21:49;;;;;;;13.57;11.52;;;11.50;99.90;;;;;;5032591;28;20040;-75
2022/10/15 02:24:21;;;;;;;13.77;10.60;;;11.50;99.90;;;;;;4999365;28;20045;-75
2022/10/15 02:26:51;;;;;;;13.60;11.55;;;11.50;99.90;;;;;;5009460;28;20040;-75
2022/10/15 02:29:20;;;;;;;13.38;10.73;;;11.50;99.90;;;;;;5011202;28;20562;-75
2022/10/15 02:31:48;;;;;;;15.32;11.27;;;11.50;99.90;;;;;;5028677;28;20500;-75
2022/10/15 02:34:18;;;;;;;14.55;12.65;;;11.50;99.90;;;;;;5026625;28;20045;-75
2022/10/15 02:36:46;;;;;;;15.25;12.70;;;11.50;99.90;;;;;;5009159;28;20033;-75
2022/10/15 02:39:21;;;;;;;15.32;12.15;;;11.50;99.90;;;;;;5010280;28;20396;-75
2022/10/15 02:41:48;;;;;;;19.63;14.05;;;11.50;99.90;;;;;;5017151;28;20048;-74
2022/10/15 02:44:14;;;;;;;21.50;15.27;;;11.40;99.90;;;;;;5017689;28;20048;-75
2022/10/15 02:46:41;;;;;;;14.52;12.27;;;11.40;99.90;;;;;;5032354;28;20040;-75
2022/10/15 02:49:09;;;;;;;16.50;12.20;;;11.30;99.90;;;;;;5030102;28;20041;-75
2022/10/15 02:51:36;;;;;;;15.38;11.82;;;11.30;99.90;;;;;;5041707;28;20033;-74
2022/10/15 02:54:06;;;;;;;16.35;12.32;;;11.20;99.90;;;;;;5031515;28;20377;-74
2022/10/15 02:56:33;;;;;;;18.65;12.80;;;11.30;99.90;;;;;;5030079;28;20041;-75
2022/10/15 02:59:00;;;;;;;17.20;13.57;;;11.30;99.90;;;;;;5030838;28;20029;-74
2022/10/15 03:01:26;;;;;;;18.27;13.88;;;11.30;99.90;;;;;;5022359;28;20040;-75
2022/10/15 03:03:52;;;;;;;18.98;13.18;;;11.30;99.90;;;;;;5035400;28;21441;-75
2022/10/15 03:06:19;;;;;;;18.88;14.00;;;11.30;99.90;;;;;;5014791;28;20408;-75
2022/10/15 03:08:47;;;;;;;17.08;13.95;;;11.30;99.90;;;;;;5012658;28;20388;-76
2022/10/15 03:11:13;;;;;;;16.23;12.80;;;11.20;99.90;;;;;;5032364;28;20036;-74
2022/10/15 03:13:40;;;;;;;15.45;12.55;;;11.20;99.90;;;;;;5031204;28;20411;-74
2022/10/15 03:16:08;;;;;;;16.52;12.05;;;11.10;99.90;;;;;;5029808;28;20046;-75
2022/10/15 03:18:36;;;;;;;15.32;11.80;;;11.10;99.90;;;;;;5029896;28;20040;-74
2022/10/15 03:21:03;;;;;;;15.98;12.60;;;11.00;99.90;;;;;;5032527;28;20040;-75
2022/10/15 03:23:30;;;;;;;15.77;12.10;;;11.00;99.90;;;;;;5014162;28;20371;-75
2022/10/15 03:26:08;;;;;;;16.85;12.00;;;10.90;99.90;;;;;;5027383;28;20048;-74
2022/10/15 03:28:35;;;;;;;16.90;11.75;;;10.90;99.90;;;;;;5012161;28;20037;-75
2022/10/15 03:31:01;;;;;;;15.40;12.05;;;10.80;99.90;;;;;;5030224;28;20313;-75
2022/10/15 03:33:29;;;;;;;16.90;12.63;;;10.80;99.90;;;;;;5031972;28;20099;-75
2022/10/15 03:35:56;;;;;;;18.67;12.88;;;10.80;99.90;;;;;;5038091;28;20033;-75
2022/10/15 03:38:23;;;;;;;18.25;13.00;;;10.80;99.90;;;;;;5045005;28;20037;-75
2022/10/15 03:40:51;;;;;;;19.33;12.88;;;10.80;99.90;;;;;;5004238;28;20029;-75
2022/10/15 03:43:28;;;;;;;17.58;12.15;;;10.90;99.90;;;;;;5015193;28;20041;-74
2022/10/15 03:46:04;;;;;;;19.40;12.68;;;10.90;99.90;;;;;;5026971;28;20032;-75
2022/10/15 03:48:33;;;;;;;16.42;12.50;;;10.90;99.90;;;;;;5031811;28;20370;-74
2022/10/15 03:50:59;;;;;;;19.63;14.35;;;11.00;99.90;;;;;;5030891;28;20432;-74
2022/10/15 03:53:26;;;;;;;20.23;13.98;;;11.00;99.90;;;;;;5035131;28;20042;-75
2022/10/15 03:55:53;;;;;;;20.58;14.07;;;11.10;99.90;;;;;;5009834;28;20048;-75
2022/10/15 03:58:19;;;;;;;17.88;13.18;;;11.10;99.90;;;;;;5028709;28;20029;-75
2022/10/15 04:00:53;;;;;;;19.42;13.57;;;11.10;99.90;;;;;;5016360;28;20033;-76
2022/10/15 04:03:19;;;;;;;20.00;14.13;;;11.20;99.90;;;;;;5033352;28;20030;-74
2022/10/15 04:05:50;;;;;;;19.55;14.73;;;11.20;99.90;;;;;;5014291;28;20044;-76
2022/10/15 04:08:17;;;;;;;20.00;14.40;;;11.30;99.90;;;;;;5010612;28;20029;-75
2022/10/15 04:10:44;;;;;;;21.02;14.82;;;11.30;99.90;;;;;;5035875;28;20032;-75
2022/10/15 04:13:10;;;;;;;22.00;14.82;;;11.30;99.90;;;;;;5034293;28;20516;-75
2022/10/15 04:15:40;;;;;;;21.77;14.68;;;11.40;99.90;;;;;;5010817;28;20037;-75
2022/10/15 04:18:10;;;;;;;22.55;14.63;;;11.40;99.90;;;;;;5032762;28;20033;-75
2022/10/15 04:20:37;;;;;;;21.58;14.23;;;11.40;99.90;;;;;;5012205;28;20025;-75
2022/10/15 04:23:13;;;;;;;20.92;14.73;;;11.40;99.90;;;;;;5033157;28;20021;-75
2022/10/15 04:25:44;;;;;;;22.05;14.52;;;11.40;99.90;;;;;;5011249;28;20396;-75
2022/10/15 04:28:12;;;;;;;22.98;14.75;;;11.40;99.90;;;;;;5030148;28;20045;-75
2022/10/15 04:30:39;;;;;;;22.70;16.20;;;11.50;99.90;;;;;;5033602;28;20037;-75
2022/10/15 04:33:08;;;;;;;22.85;16.27;;;11.50;99.90;;;;;;5031668;28;20045;-75
2022/10/15 04:35:35;;;;;;;24.88;16.45;;;11.50;99.90;;;;;;5012025;28;20064;-76
2022/10/15 04:38:08;;;;;;;;;;;11.50;99.90;;;;;;5029952;28;20045;-75
2022/10/15 04:41:08;;;;;;;17.73;11.90;;;11.60;99.90;;;;;;5029294;28;19909;-75
2022/10/15 04:43:54;;;;;;;21.30;12.98;;;11.50;99.90;;;;;;5019590;28;20492;-75
2022/10/15 04:46:21;;;;;;;19.27;13.27;;;11.50;99.90;;;;;;5030016;28;20060;-74
2022/10/15 04:48:49;;;;;;;25.20;16.42;;;11.50;99.90;;;;;;5012552;28;20060;-75
2022/10/15 04:51:19;;;;;;;21.02;14.18;;;11.50;99.90;;;;;;5019385;28;20033;-75
2022/10/15 04:54:17;;;;;;;18.90;13.60;;;11.50;99.90;;;;;;5022372;28;20064;-75
2022/10/15 04:56:58;;;;;;;19.55;14.18;;;11.50;99.90;;;;;;5017105;28;20041;-75
2022/10/15 04:59:25;;;;;;;20.77;14.63;;;11.50;99.90;;;;;;5029715;28;20060;-75
2022/10/15 05:02:10;;;;;;;23.15;15.60;;;11.60;99.90;;;;;;5036144;28;20049;-75
2022/10/15 05:04:37;;;;;;;23.58;15.50;;;11.60;99.90;;;;;;5016836;28;20049;-74
2022/10/15 05:07:03;;;;;;;23.73;15.02;;;11.60;99.90;;;;;;5033227;28;20033;-74
2022/10/15 05:09:30;;;;;;;22.35;14.82;;;11.60;99.90;;;;;;5034509;28;20049;-75
2022/10/15 05:11:58;;;;;;;23.13;15.50;;;11.60;99.90;;;;;;5015901;28;20060;-75
2022/10/15 05:14:27;;;;;;;22.08;16.27;;;11.70;99.90;;;;;;5011469;28;20056;-75
2022/10/15 05:17:05;;;;;;;23.17;16.63;;;11.70;99.90;;;;;;5005260;28;20033;-75
2022/10/15 05:19:37;;;;;;;24.08;15.52;;;11.70;99.90;;;;;;5028789;28;20389;-74
2022/10/15 05:22:04;;;;;;;27.02;17.35;;;11.80;99.90;;;;;;5015490;28;20040;-75
2022/10/15 05:24:33;;;;;;;23.42;16.45;;;11.80;99.90;;;;;;5033156;28;20104;-75
2022/10/15 05:27:31;;;;;;;25.75;16.83;;;11.80;99.90;;;;;;5023452;28;20052;-75
2022/10/15 05:29:58;;;;;;;24.08;16.75;;;11.90;99.90;;;;;;5025618;28;20034;-75
2022/10/15 05:32:33;;;;;;;21.90;15.00;;;11.80;99.90;;;;;;5016510;28;20048;-75
2022/10/15 05:34:59;;;;;;;23.10;14.88;;;11.90;99.90;;;;;;5013472;28;20427;-75
2022/10/15 05:37:37;;;;;;;23.23;15.57;;;11.90;99.90;;;;;;5027172;28;20041;-75
2022/10/15 05:40:04;;;;;;;23.05;15.57;;;12.00;99.90;;;;;;5033481;28;20029;-75
2022/10/15 05:42:30;;;;;;;23.65;15.90;;;12.00;99.90;;;;;;5034104;28;20477;-75
2022/10/15 05:44:58;;;;;;;22.52;16.77;;;12.00;99.90;;;;;;5026873;28;20033;-75
2022/10/15 05:47:24;;;;;;;25.90;16.52;;;12.10;99.90;;;;;;5032555;28;20034;-75
2022/10/15 05:49:57;;;;;;;20.80;14.57;;;12.10;99.90;;;;;;5012409;28;20399;-74
2022/10/15 05:52:28;;;;;;;22.98;15.65;;;12.10;99.90;;;;;;5016681;28;20048;-75
2022/10/15 05:55:17;;;;;;;20.63;15.60;;;12.10;99.90;;;;;;5032462;28;20037;-75
2022/10/15 05:57:43;;;;;;;24.17;16.75;;;12.20;99.90;;;;;;5026162;28;20037;-75
2022/10/15 06:00:10;;;;;;;23.27;16.73;;;12.20;99.90;;;;;;5026840;28;20492;-75
2022/10/15 06:02:40;;;;;;;21.50;15.93;;;12.20;99.90;;;;;;5033998;28;20049;-76
2022/10/15 06:05:06;;;;;;;23.35;16.70;;;12.20;99.90;;;;;;5032105;28;20041;-79
2022/10/15 06:07:33;;;;;;;21.95;16.17;;;12.20;99.90;;;;;;4996525;28;20029;-74
2022/10/15 06:10:04;;;;;;;21.30;15.60;;;12.30;99.90;;;;;;5025863;28;20037;-74
2022/10/15 06:12:33;;;;;;;22.65;16.13;;;12.30;99.90;;;;;;5012977;28;20407;-74
2022/10/15 06:15:00;;;;;;;21.83;16.35;;;12.30;99.90;;;;;;5033799;28;20037;-75
2022/10/15 06:17:26;;;;;;;26.48;17.75;;;12.40;99.90;;;;;;5032692;28;20032;-74
2022/10/15 06:19:52;;;;;;;31.00;21.88;;;12.40;99.90;;;;;;5027517;28;20036;-75
2022/10/15 06:22:18;;;;;;;31.10;20.95;;;12.40;99.90;;;;;;5029574;28;20460;-74
2022/10/15 06:24:44;;;;;;;33.65;22.63;;;12.40;99.90;;;;;;5024216;28;20033;-75
2022/10/15 06:27:14;;;;;;;26.35;18.73;;;12.40;99.90;;;;;;5025168;28;20026;-75
2022/10/15 06:29:40;;;;;;;34.03;23.63;;;12.50;99.90;;;;;;5025184;28;20030;-75
2022/10/15 06:32:10;;;;;;;29.17;21.77;;;12.50;99.90;;;;;;5023297;28;20042;-75
2022/10/15 06:34:43;;;;;;;33.80;22.48;;;12.50;99.90;;;;;;5021438;28;20037;-75
2022/10/15 06:37:09;;;;;;;27.30;20.63;;;12.60;99.90;;;;;;5025596;28;20555;-75
2022/10/15 06:39:36;;;;;;;42.05;26.92;;;12.60;99.90;;;;;;5029145;28;20033;-75
2022/10/15 06:42:02;;;;;;;41.85;28.08;;;12.60;99.90;;;;;;5029196;28;20025;-75
2022/10/15 06:44:40;;;;;;;41.42;28.42;;;12.70;99.90;;;;;;5036281;28;20033;-75
2022/10/15 06:47:07;;;;;;;34.42;22.67;;;12.70;99.90;;;;;;5023842;28;20037;-75
2022/10/15 06:49:33;;;;;;;34.47;23.77;;;12.70;99.90;;;;;;5022505;28;20025;-75
2022/10/15 06:51:59;;;;;;;35.50;23.65;;;12.80;99.90;;;;;;5038800;28;20040;-75
2022/10/15 06:54:25;;;;;;;32.05;22.90;;;12.80;99.90;;;;;;5025371;28;20050;-75
2022/10/15 06:56:52;;;;;;;29.80;21.42;;;12.80;99.90;;;;;;5023525;28;20048;-75
2022/10/15 06:59:18;;;;;;;30.88;20.75;;;12.90;99.90;;;;;;5021783;28;20040;-74
2022/10/15 07:01:44;;;;;;;30.70;21.98;;;12.90;99.90;;;;;;5020453;28;20434;-74
2022/10/15 07:04:10;;;;;;;27.50;18.55;;;12.90;99.90;;;;;;5026988;28;20052;-72
2022/10/15 07:06:37;;;;;;;28.52;19.48;;;13.00;99.90;;;;;;5019619;28;20042;-75
2022/10/15 07:09:04;;;;;;;38.40;25.90;;;13.00;99.90;;;;;;5008037;28;20029;-74
2022/10/15 07:11:31;;;;;;;35.45;22.60;;;13.10;99.90;;;;;;5020438;28;20029;-74
2022/10/15 07:13:57;;;;;;;29.08;19.77;;;13.10;99.90;;;;;;5026382;28;20053;-73
2022/10/15 07:16:23;;;;;;;27.27;18.45;;;13.10;99.90;;;;;;5026227;28;20041;-73
2022/10/15 07:18:50;;;;;;;27.83;19.05;;;13.20;99.90;;;;;;5021812;28;20036;-74
2022/10/15 07:21:16;;;;;;;27.40;17.65;;;13.20;99.90;;;;;;5024697;28;20034;-73
2022/10/15 07:23:42;;;;;;;30.23;20.35;;;13.30;99.90;;;;;;5028385;28;20036;-72
2022/10/15 07:26:09;;;;;;;32.90;22.27;;;13.30;99.90;;;;;;5026663;28;20448;-73
2022/10/15 07:28:35;;;;;;;27.52;19.13;;;13.30;99.90;;;;;;5023484;28;20029;-74
2022/10/15 07:31:03;;;;;;;25.88;18.92;;;13.30;99.90;;;;;;5013512;28;20025;-76
2022/10/15 07:33:30;;;;;;;33.78;21.77;;;13.30;99.90;;;;;;5029453;28;20033;-75
2022/10/15 07:36:08;;;;;;;42.17;25.60;;;13.40;99.90;;;;;;5022579;28;20042;-74
2022/10/15 07:38:35;;;;;;;29.00;19.90;;;13.40;99.90;;;;;;5026949;28;20048;-74
2022/10/15 07:41:03;;;;;;;28.25;18.70;;;13.50;99.90;;;;;;5027717;28;20038;-75
2022/10/15 07:43:33;;;;;;;27.63;18.35;;;13.50;99.90;;;;;;5028870;28;20037;-75
2022/10/15 07:45:59;;;;;;;26.48;17.63;;;13.50;99.90;;;;;;5009254;28;20025;-76
2022/10/15 07:48:26;;;;;;;26.55;18.15;;;13.60;99.90;;;;;;4993315;28;20034;-73
2022/10/15 07:50:56;;;;;;;25.55;18.33;;;13.60;99.90;;;;;;5023252;28;20026;-75
2022/10/15 07:53:22;;;;;;;31.33;21.10;;;13.70;99.90;;;;;;5012294;28;20045;-74
2022/10/15 07:55:52;;;;;;;31.63;21.38;;;13.70;99.90;;;;;;5025903;28;20488;-73
2022/10/15 07:58:18;;;;;;;32.50;21.42;;;13.70;99.90;;;;;;5024236;28;20040;-74
2022/10/15 08:00:45;;;;;;;57.50;30.98;;;13.70;99.90;;;;;;5023646;28;20036;-74
2022/10/15 08:03:11;;;;;;;43.30;25.25;;;13.80;99.90;;;;;;5028425;28;20041;-75
2022/10/15 08:05:37;;;;;;;37.47;24.58;;;13.70;99.90;;;;;;5022030;28;20033;-74
2022/10/15 08:08:04;;;;;;;34.67;24.85;;;13.70;99.90;;;;;;5027706;28;20052;-74
2022/10/15 08:10:30;;;;;;;41.53;27.40;;;13.80;99.90;;;;;;5010373;28;20037;-74
2022/10/15 08:12:56;;;;;;;35.45;25.00;;;13.90;99.90;;;;;;5027355;28;20223;-74
2022/10/15 08:15:22;;;;;;;32.13;21.48;;;13.90;99.90;;;;;;5019044;28;20042;-74
2022/10/15 08:17:49;;;;;;;39.72;25.48;;;14.00;99.90;;;;;;5024187;28;20045;-73
2022/10/15 08:20:15;;;;;;;34.13;24.27;;;14.20;99.90;;;;;;5023262;28;20134;-74
2022/10/15 08:22:41;;;;;;;41.10;27.45;;;14.30;99.90;;;;;;5030217;28;20037;-74
2022/10/15 08:25:08;;;;;;;37.92;26.90;;;14.40;99.90;;;;;;5021966;28;20026;-74
2022/10/15 08:27:35;;;;;;;33.75;23.50;;;14.40;99.90;;;;;;5024012;28;20034;-74
2022/10/15 08:30:03;;;;;;;40.95;24.90;;;14.50;99.90;;;;;;5026413;28;20029;-73
2022/10/15 08:32:30;;;;;;;35.22;23.08;;;14.60;99.90;;;;;;5011328;28;20044;-75
2022/10/15 08:34:56;;;;;;;26.67;18.13;;;14.70;99.90;;;;;;5027052;28;20041;-74
2022/10/15 08:37:22;;;;;;;32.00;22.00;;;14.80;99.90;;;;;;5026272;28;20061;-74
2022/10/15 08:39:48;;;;;;;31.83;22.60;;;14.90;99.90;;;;;;5022247;28;20033;-75
2022/10/15 08:42:43;;;;;;;34.58;24.13;;;15.00;99.90;;;;;;5023116;28;20045;-75
2022/10/15 08:45:14;;;;;;;27.52;21.23;;;15.20;99.90;;;;;;5020363;28;20033;-75
2022/10/15 08:47:54;;;;;;;26.13;19.33;;;15.40;99.90;;;;;;5009729;28;20060;-75
2022/10/15 08:50:47;;;;;;;28.15;21.38;;;15.50;99.90;;;;;;5001942;28;20889;-75
2022/10/15 08:53:18;;;;;;;30.48;22.95;;;15.60;99.90;;;;;;5020835;28;20492;-74
2022/10/15 08:55:50;;;;;;;27.33;19.77;;;15.70;99.90;;;;;;5022785;28;20516;-74
2022/10/15 08:58:20;;;;;;;29.20;22.13;;;15.80;99.90;;;;;;5023504;28;20025;-75
2022/10/15 09:00:55;;;;;;;25.83;19.75;;;15.90;99.90;;;;;;5023489;28;20048;-75
2022/10/15 09:03:45;;;;;;;25.73;20.08;;;15.90;99.90;;;;;;5007095;28;20431;-75
2022/10/15 09:06:26;;;;;;;28.13;22.30;;;16.00;99.90;;;;;;5026876;28;20404;-74
2022/10/15 09:09:10;;;;;;;22.88;18.27;;;16.00;99.90;;;;;;5028498;28;20468;-75
2022/10/15 09:12:01;;;;;;;28.20;21.30;;;15.90;99.90;;;;;;5025863;28;20060;-74
2022/10/15 09:14:33;;;;;;;19.40;14.65;;;15.80;99.90;;;;;;5007173;28;20071;-75
2022/10/15 09:17:06;;;;;;;19.30;15.25;;;15.80;99.90;;;;;;5026228;28;20403;-75
2022/10/15 09:19:36;;;;;;;19.48;16.20;;;15.80;99.90;;;;;;5013250;28;20045;-75
2022/10/15 09:22:08;;;;;;;;;;;16.00;99.90;;;;;;5026965;28;20124;-75
2022/10/15 09:24:35;;;;;;;18.17;14.65;;;16.00;99.90;;;;;;5019381;28;19913;-75
2022/10/15 09:27:15;;;;;;;18.00;14.55;;;16.10;99.90;;;;;;5019767;28;20937;-75
2022/10/15 09:29:49;;;;;;;19.67;15.52;;;16.20;99.90;;;;;;5021448;28;20144;-78
2022/10/15 09:32:22;;;;;;;26.15;19.50;;;16.30;99.90;;;;;;5038211;28;20040;-78
2022/10/15 09:35:00;;;;;;;26.98;19.65;;;16.10;99.90;;;;;;5024075;28;20052;-78
2022/10/15 09:37:45;;;;;;;20.25;15.80;;;16.10;99.90;;;;;;5046993;28;20030;-73
2022/10/15 09:40:33;;;;;;;17.35;14.13;;;16.10;99.90;;;;;;5026166;28;20045;-74
2022/10/15 09:43:01;;;;;;;25.02;19.02;;;16.10;99.90;;;;;;5029463;28;20544;-75
2022/10/15 09:45:27;;;;;;;17.92;14.30;;;16.20;99.90;;;;;;5009421;28;20539;-74
2022/10/15 09:47:59;;;;;;;19.02;14.60;;;16.30;99.90;;;;;;5036587;28;20040;-74
2022/10/15 09:50:35;;;;;;;17.27;14.27;;;16.40;99.90;;;;;;5029097;28;20052;-74
2022/10/15 09:53:21;;;;;;;14.65;11.68;;;16.40;99.90;;;;;;5031418;28;20071;-74
2022/10/15 09:55:55;;;;;;;18.85;13.88;;;16.50;99.90;;;;;;5026801;28;20407;-75
2022/10/15 09:58:28;;;;;;;14.05;10.70;;;16.60;99.90;;;;;;5025800;28;20492;-74
2022/10/15 10:00:59;;;;;;;11.02;9.30;;;16.60;99.90;;;;;;5023339;28;20497;-74
2022/10/15 10:03:34;;;;;;;18.30;13.68;;;16.60;99.90;;;;;;5000615;28;20037;-76
2022/10/15 10:06:08;;;;;;;13.23;10.18;;;16.60;99.90;;;;;;5010128;28;20044;-75
2022/10/15 10:08:56;;;;;;;14.23;10.55;;;16.40;99.90;;;;;;5012064;28;20041;-75
2022/10/15 10:11:25;;;;;;;17.85;10.18;;;16.30;99.90;;;;;;5043545;28;20041;-74
2022/10/15 10:13:57;;;;;;;15.98;10.65;;;16.20;99.90;;;;;;5025801;28;20042;-72
2022/10/15 10:16:25;;;;;;;11.43;8.98;;;16.00;99.90;;;;;;5029113;28;20045;-76
2022/10/15 10:19:12;;;;;;;13.65;10.20;;;15.90;99.90;;;;;;5028767;28;20033;-76
2022/10/15 10:21:41;;;;;;;14.18;11.48;;;15.90;99.90;;;;;;5027580;28;20044;-74
2022/10/15 10:24:29;;;;;;;14.75;11.32;;;16.00;99.90;;;;;;5027359;28;20041;-74
2022/10/15 10:26:57;;;;;;;11.43;9.02;;;16.00;99.90;;;;;;5029549;28;20028;-75
2022/10/15 10:29:24;;;;;;;13.38;9.65;;;16.00;99.90;;;;;;5029339;28;20041;-77
2022/10/15 10:31:51;;;;;;;11.32;9.50;;;16.00;99.90;;;;;;5028503;28;20065;-74
2022/10/15 10:34:32;;;;;;;14.35;10.57;;;16.00;99.90;;;;;;5025686;28;20751;-75
2022/10/15 10:37:03;;;;;;;11.63;9.18;;;15.90;99.90;;;;;;5016368;28;20041;-77
2022/10/15 10:39:31;;;;;;;13.90;11.50;;;15.90;99.90;;;;;;5026364;28;20037;-73
2022/10/15 10:42:16;;;;;;;13.85;10.77;;;15.90;99.90;;;;;;5031631;28;20061;-75
2022/10/15 10:44:46;;;;;;;12.52;9.88;;;15.80;99.90;;;;;;5023546;28;20037;-74
2022/10/15 10:47:17;;;;;;;13.00;9.90;;;15.70;99.90;;;;;;5010721;28;20056;-72
2022/10/15 10:49:56;;;;;;;11.35;9.10;;;15.60;99.90;;;;;;5014022;28;20036;-75
2022/10/15 10:52:36;;;;;;;13.55;10.32;;;15.60;99.90;;;;;;5031517;28;20044;-77
2022/10/15 10:55:17;;;;;;;9.60;7.75;;;15.50;99.90;;;;;;5021936;28;20045;-73
2022/10/15 10:57:55;;;;;;;8.38;6.40;;;15.50;99.90;;;;;;5029661;28;20048;-75
2022/10/15 11:00:24;;;;;;;10.25;7.53;;;15.50;99.90;;;;;;5026805;28;20029;-76
2022/10/15 11:02:52;;;;;;;12.20;9.13;;;15.50;99.90;;;;;;5027605;28;20036;-79
2022/10/15 11:05:25;;;;;;;9.20;6.82;;;15.50;99.90;;;;;;5028445;28;20033;-73
2022/10/15 11:08:03;;;;;;;12.13;8.40;;;15.50;99.90;;;;;;5023258;28;20030;-74
2022/10/15 11:10:47;;;;;;;10.68;8.30;;;15.50;99.90;;;;;;5025109;28;20033;-76
2022/10/15 11:13:32;;;;;;;11.13;7.97;;;15.50;99.90;;;;;;5026306;28;20049;-78
2022/10/15 11:16:28;;;;;;;12.20;8.32;;;15.50;99.90;;;;;;5022939;28;20047;-77
2022/10/15 11:19:12;;;;;;;11.82;7.25;;;15.50;99.90;;;;;;5021836;28;20049;-78
2022/10/15 11:21:45;;;;;;;11.95;8.48;;;15.50;99.90;;;;;;5027409;28;20800;-78
2022/10/15 11:24:29;;;;;;;8.98;6.28;;;15.50;99.90;;;;;;5020033;28;20042;-76
2022/10/15 11:26:55;;;;;;;16.08;11.65;;;15.50;99.90;;;;;;5026355;28;20041;-75
2022/10/15 11:30:10;;;;;;;13.82;9.55;;;15.40;99.90;;;;;;5025453;28;20045;-76
2022/10/15 11:33:09;;;;;;;11.90;8.82;;;15.50;99.90;;;;;;5027821;28;20067;-78
2022/10/15 11:35:47;;;;;;;10.82;8.52;;;15.50;99.90;;;;;;5025682;28;20034;-74
2022/10/15 11:38:38;;;;;;;12.45;8.20;;;15.50;99.90;;;;;;5026564;28;20055;-78
2022/10/15 11:41:13;;;;;;;10.88;7.30;;;15.50;99.90;;;;;;5044518;28;20029;-78
2022/10/15 11:44:01;;;;;;;8.27;5.28;;;15.50;99.90;;;;;;5023994;28;20061;-78
2022/10/15 11:46:33;;;;;;;9.85;6.88;;;15.50;99.90;;;;;;5024194;28;20032;-76
2022/10/15 11:49:34;;;;;;;8.30;6.20;;;15.50;99.90;;;;;;5026159;28;20057;-77
2022/10/15 11:52:26;;;;;;;12.90;8.02;;;15.60;99.90;;;;;;5025942;28;20028;-75
2022/10/15 11:55:11;;;;;;;10.80;7.88;;;15.50;99.90;;;;;;5021151;28;20041;-76
2022/10/15 11:57:39;;;;;;;9.50;5.93;;;15.60;99.90;;;;;;5024396;28;20392;-80
2022/10/15 12:00:23;;;;;;;8.90;6.57;;;15.60;99.90;;;;;;5026706;28;20032;-78
2022/10/15 12:02:51;;;;;;;8.38;7.00;;;15.70;99.90;;;;;;5029224;28;20041;-76
2022/10/15 12:05:27;;;;;;;15.88;10.63;;;15.70;99.90;;;;;;5024686;28;20041;-77
2022/10/15 12:07:54;;;;;;;9.20;6.03;;;15.70;99.90;;;;;;5008117;28;20052;-79
2022/10/15 12:10:43;;;;;;;10.93;8.07;;;15.80;99.90;;;;;;5024680;28;20511;-79
2022/10/15 12:13:38;;;;;;;8.43;6.57;;;15.70;99.90;;;;;;5038533;28;20054;-78
2022/10/15 12:16:32;;;;;;;6.90;4.82;;;15.70;99.90;;;;;;4971704;28;20273;-76
2022/10/15 12:19:18;;;;;;;4.15;3.33;;;15.80;99.90;;;;;;5027056;28;20041;-80
2022/10/15 12:21:54;;;;;;;5.15;3.83;;;15.80;99.90;;;;;;5042241;28;20511;-78
2022/10/15 12:24:50;;;;;;;5.47;3.42;;;15.80;99.90;;;;;;5021871;28;20385;-77
2022/10/15 12:27:29;;;;;;;6.95;3.45;;;15.80;99.90;;;;;;5027330;28;20040;-75
2022/10/15 12:30:01;;;;;;;7.35;5.32;;;15.90;99.90;;;;;;5008157;28;20404;-77
2022/10/15 12:32:41;;;;;;;;;;;15.90;99.90;;;;;;5027034;28;20132;-79
2022/10/15 12:35:13;;;;;;;4.35;3.40;;;15.90;99.90;;;;;;5038727;28;19921;-80
2022/10/15 12:37:41;;;;;;;3.17;2.47;;;16.00;99.90;;;;;;5017757;28;20037;-78
2022/10/15 12:40:27;;;;;;;3.50;2.60;;;16.00;99.90;;;;;;5020179;28;20037;-80
2022/10/15 12:43:02;;;;;;;2.72;2.38;;;16.00;99.90;;;;;;5016405;28;20397;-78
2022/10/15 12:45:39;;;;;;;3.13;2.45;;;16.10;99.90;;;;;;5022323;28;20128;-80
2022/10/15 12:48:05;;;;;;;3.58;2.80;;;16.20;99.90;;;;;;5027002;28;20029;-79
2022/10/15 12:50:33;;;;;;;2.75;1.75;;;16.20;99.90;;;;;;5025122;28;20033;-78
2022/10/15 12:53:04;;;;;;;4.70;3.15;;;16.30;99.90;;;;;;5022458;28;20034;-79
2022/10/15 12:55:38;;;;;;;2.45;2.20;;;16.30;99.90;;;;;;5015776;28;20038;-80
2022/10/15 12:58:33;;;;;;;3.47;3.17;;;16.30;99.90;;;;;;5021780;28;20044;-80
2022/10/15 13:01:22;;;;;;;5.75;5.20;;;16.40;99.90;;;;;;5021855;28;20034;-81